sensor_id;sensor_type;location;lat;lon;timestamp;temperature;humidity
2465;DHT22;1244;54.326;10.074;2022-07-10T00:00:05;13.20;99.90
2465;DHT22;1244;54.326;10.074;2022-07-10T00:02:32;13.10;99.90
2465;DHT22;1244;54.326;10.074;2022-07-10T00:04:57;13.20;99.90
2465;DHT22;1244;54.326;10.074;2022-07-10T00:07:23;13.20;99.90
2465;DHT22;1244;54.326;10.074;2022-07-10T00:09:48;13.10;99.90
2465;DHT22;1244;54.326;10.074;2022-07-10T00:12:14;13.00;99.90
2465;DHT22;1244;54.326;10.074;2022-07-10T00:14:39;13.00;99.90
2465;DHT22;1244;54.326;10.074;2022-07-10T00:17:05;13.00;99.90
2465;DHT22;1244;54.326;10.074;2022-07-10T00:19:30;13.00;99.90
2465;DHT22;1244;54.326;10.074;2022-07-10T00:21:56;13.10;99.90
2465;DHT22;1244;54.326;10.074;2022-07-10T00:24:21;13.00;99.90
2465;DHT22;1244;54.326;10.074;2022-07-10T00:26:47;12.90;99.90
2465;DHT22;1244;54.326;10.074;2022-07-10T00:29:13;12.90;99.90
2465;DHT22;1244;54.326;10.074;2022-07-10T00:31:39;12.90;99.90
2465;DHT22;1244;54.326;10.074;2022-07-10T00:34:04;13.00;99.90
2465;DHT22;1244;54.326;10.074;2022-07-10T00:36:31;12.90;99.90
2465;DHT22;1244;54.326;10.074;2022-07-10T00:38:57;12.90;99.90
2465;DHT22;1244;54.326;10.074;2022-07-10T00:41:22;13.00;99.90
2465;DHT22;1244;54.326;10.074;2022-07-10T00:43:52;12.90;99.90
2465;DHT22;1244;54.326;10.074;2022-07-10T00:46:19;13.00;99.90
2465;DHT22;1244;54.326;10.074;2022-07-10T00:48:48;13.00;99.90
2465;DHT22;1244;54.326;10.074;2022-07-10T00:51:15;13.00;99.90
2465;DHT22;1244;54.326;10.074;2022-07-10T00:53:42;12.90;99.90
2465;DHT22;1244;54.326;10.074;2022-07-10T00:56:09;13.00;99.90
2465;DHT22;1244;54.326;10.074;2022-07-10T00:58:35;13.00;99.90
2465;DHT22;1244;54.326;10.074;2022-07-10T01:01:02;13.00;99.90
2465;DHT22;1244;54.326;10.074;2022-07-10T01:03:27;13.00;99.90
2465;DHT22;1244;54.326;10.074;2022-07-10T01:05:53;13.00;99.90
2465;DHT22;1244;54.326;10.074;2022-07-10T01:08:18;13.00;99.90
2465;DHT22;1244;54.326;10.074;2022-07-10T01:10:45;13.00;99.90
2465;DHT22;1244;54.326;10.074;2022-07-10T01:13:10;13.00;99.90
2465;DHT22;1244;54.326;10.074;2022-07-10T01:15:37;13.00;99.90
2465;DHT22;1244;54.326;10.074;2022-07-10T01:18:03;13.10;99.90
2465;DHT22;1244;54.326;10.074;2022-07-10T01:20:32;13.10;99.90
2465;DHT22;1244;54.326;10.074;2022-07-10T01:22:58;13.20;99.90
2465;DHT22;1244;54.326;10.074;2022-07-10T01:25:24;13.20;99.90
2465;DHT22;1244;54.326;10.074;2022-07-10T01:27:50;13.20;99.90
2465;DHT22;1244;54.326;10.074;2022-07-10T01:30:16;13.20;99.90
2465;DHT22;1244;54.326;10.074;2022-07-10T01:32:43;13.20;99.90
2465;DHT22;1244;54.326;10.074;2022-07-10T01:35:09;13.30;99.90
2465;DHT22;1244;54.326;10.074;2022-07-10T01:37:34;13.30;99.90
2465;DHT22;1244;54.326;10.074;2022-07-10T01:40:00;13.20;99.90
2465;DHT22;1244;54.326;10.074;2022-07-10T01:42:25;13.30;99.90
2465;DHT22;1244;54.326;10.074;2022-07-10T01:44:51;13.30;99.90
2465;DHT22;1244;54.326;10.074;2022-07-10T01:47:16;13.20;99.90
2465;DHT22;1244;54.326;10.074;2022-07-10T01:49:42;13.30;99.90
2465;DHT22;1244;54.326;10.074;2022-07-10T01:52:07;13.30;99.90
2465;DHT22;1244;54.326;10.074;2022-07-10T01:54:33;13.30;99.90
2465;DHT22;1244;54.326;10.074;2022-07-10T01:56:58;13.20;99.90
2465;DHT22;1244;54.326;10.074;2022-07-10T01:59:24;13.10;99.90
2465;DHT22;1244;54.326;10.074;2022-07-10T02:01:49;13.10;99.90
2465;DHT22;1244;54.326;10.074;2022-07-10T02:04:15;13.20;99.90
2465;DHT22;1244;54.326;10.074;2022-07-10T02:06:59;13.20;99.90
2465;DHT22;1244;54.326;10.074;2022-07-10T02:09:24;13.10;99.90
2465;DHT22;1244;54.326;10.074;2022-07-10T02:11:50;13.10;99.90
2465;DHT22;1244;54.326;10.074;2022-07-10T02:14:15;13.20;99.90
2465;DHT22;1244;54.326;10.074;2022-07-10T02:16:41;13.00;99.90
2465;DHT22;1244;54.326;10.074;2022-07-10T02:19:06;13.10;99.90
2465;DHT22;1244;54.326;10.074;2022-07-10T02:21:32;13.10;99.90
2465;DHT22;1244;54.326;10.074;2022-07-10T02:23:57;13.10;99.90
2465;DHT22;1244;54.326;10.074;2022-07-10T02:26:23;13.10;99.90
2465;DHT22;1244;54.326;10.074;2022-07-10T02:28:48;13.10;99.90
2465;DHT22;1244;54.326;10.074;2022-07-10T02:31:14;13.10;99.90
2465;DHT22;1244;54.326;10.074;2022-07-10T02:33:39;13.10;99.90
2465;DHT22;1244;54.326;10.074;2022-07-10T02:36:05;13.00;99.90
2465;DHT22;1244;54.326;10.074;2022-07-10T02:38:30;13.00;99.90
2465;DHT22;1244;54.326;10.074;2022-07-10T02:40:56;13.00;99.90
2465;DHT22;1244;54.326;10.074;2022-07-10T02:43:21;13.00;99.90
2465;DHT22;1244;54.326;10.074;2022-07-10T02:45:47;12.90;99.90
2465;DHT22;1244;54.326;10.074;2022-07-10T02:48:14;13.00;99.90
2465;DHT22;1244;54.326;10.074;2022-07-10T02:50:41;13.10;99.90
2465;DHT22;1244;54.326;10.074;2022-07-10T02:53:06;13.00;99.90
2465;DHT22;1244;54.326;10.074;2022-07-10T02:55:32;13.00;99.90
2465;DHT22;1244;54.326;10.074;2022-07-10T02:57:58;12.90;99.90
2465;DHT22;1244;54.326;10.074;2022-07-10T03:00:25;13.00;99.90
2465;DHT22;1244;54.326;10.074;2022-07-10T03:02:51;12.90;99.90
2465;DHT22;1244;54.326;10.074;2022-07-10T03:05:17;12.90;99.90
2465;DHT22;1244;54.326;10.074;2022-07-10T03:07:43;12.90;99.90
2465;DHT22;1244;54.326;10.074;2022-07-10T03:10:09;12.80;99.90
2465;DHT22;1244;54.326;10.074;2022-07-10T03:12:34;12.70;99.90
2465;DHT22;1244;54.326;10.074;2022-07-10T03:15:00;12.70;99.90
2465;DHT22;1244;54.326;10.074;2022-07-10T03:17:25;12.70;99.90
2465;DHT22;1244;54.326;10.074;2022-07-10T03:19:51;12.80;99.90
2465;DHT22;1244;54.326;10.074;2022-07-10T03:22:17;12.80;99.90
2465;DHT22;1244;54.326;10.074;2022-07-10T03:24:42;12.90;99.90
2465;DHT22;1244;54.326;10.074;2022-07-10T03:27:12;12.80;99.90
2465;DHT22;1244;54.326;10.074;2022-07-10T03:29:38;12.80;99.90
2465;DHT22;1244;54.326;10.074;2022-07-10T03:32:04;12.70;99.90
2465;DHT22;1244;54.326;10.074;2022-07-10T03:34:30;12.80;99.90
2465;DHT22;1244;54.326;10.074;2022-07-10T03:36:55;12.90;99.90
2465;DHT22;1244;54.326;10.074;2022-07-10T03:39:21;13.00;99.90
2465;DHT22;1244;54.326;10.074;2022-07-10T03:41:47;12.90;99.90
2465;DHT22;1244;54.326;10.074;2022-07-10T03:44:13;12.90;99.90
2465;DHT22;1244;54.326;10.074;2022-07-10T03:46:38;12.90;99.90
2465;DHT22;1244;54.326;10.074;2022-07-10T03:49:04;12.90;99.90
2465;DHT22;1244;54.326;10.074;2022-07-10T03:51:29;12.90;99.90
2465;DHT22;1244;54.326;10.074;2022-07-10T03:53:54;12.80;99.90
2465;DHT22;1244;54.326;10.074;2022-07-10T03:56:20;12.90;99.90
2465;DHT22;1244;54.326;10.074;2022-07-10T03:59:04;12.80;99.90
2465;DHT22;1244;54.326;10.074;2022-07-10T04:01:29;12.80;99.90
2465;DHT22;1244;54.326;10.074;2022-07-10T04:03:55;12.70;99.90
2465;DHT22;1244;54.326;10.074;2022-07-10T04:06:21;12.70;99.90
2465;DHT22;1244;54.326;10.074;2022-07-10T04:08:46;12.60;99.90
2465;DHT22;1244;54.326;10.074;2022-07-10T04:11:12;12.60;99.90
2465;DHT22;1244;54.326;10.074;2022-07-10T04:13:37;12.50;99.90
2465;DHT22;1244;54.326;10.074;2022-07-10T04:16:03;12.50;99.90
2465;DHT22;1244;54.326;10.074;2022-07-10T04:18:29;12.50;99.90
2465;DHT22;1244;54.326;10.074;2022-07-10T04:20:54;12.50;99.90
2465;DHT22;1244;54.326;10.074;2022-07-10T04:23:20;12.50;99.90
2465;DHT22;1244;54.326;10.074;2022-07-10T04:25:45;12.60;99.90
2465;DHT22;1244;54.326;10.074;2022-07-10T04:28:11;12.60;99.90
2465;DHT22;1244;54.326;10.074;2022-07-10T04:30:36;12.70;99.90
2465;DHT22;1244;54.326;10.074;2022-07-10T04:33:02;12.80;99.90
2465;DHT22;1244;54.326;10.074;2022-07-10T04:35:27;12.80;99.90
2465;DHT22;1244;54.326;10.074;2022-07-10T04:37:53;12.90;99.90
2465;DHT22;1244;54.326;10.074;2022-07-10T04:40:18;12.80;99.90
2465;DHT22;1244;54.326;10.074;2022-07-10T04:42:44;12.90;99.90
2465;DHT22;1244;54.326;10.074;2022-07-10T04:45:10;13.00;99.90
2465;DHT22;1244;54.326;10.074;2022-07-10T04:47:36;13.00;99.90
2465;DHT22;1244;54.326;10.074;2022-07-10T04:50:02;13.00;99.90
2465;DHT22;1244;54.326;10.074;2022-07-10T04:52:27;13.00;99.90
2465;DHT22;1244;54.326;10.074;2022-07-10T04:54:53;12.90;99.90
2465;DHT22;1244;54.326;10.074;2022-07-10T04:57:18;12.90;99.90
2465;DHT22;1244;54.326;10.074;2022-07-10T04:59:44;13.00;99.90
2465;DHT22;1244;54.326;10.074;2022-07-10T05:02:09;13.00;99.90
2465;DHT22;1244;54.326;10.074;2022-07-10T05:04:35;13.10;99.90
2465;DHT22;1244;54.326;10.074;2022-07-10T05:07:00;13.10;99.90
2465;DHT22;1244;54.326;10.074;2022-07-10T05:09:26;13.10;99.90
2465;DHT22;1244;54.326;10.074;2022-07-10T05:11:51;13.10;99.90
2465;DHT22;1244;54.326;10.074;2022-07-10T05:14:17;13.10;99.90
2465;DHT22;1244;54.326;10.074;2022-07-10T05:16:42;13.20;99.90
2465;DHT22;1244;54.326;10.074;2022-07-10T05:19:08;13.20;99.90
2465;DHT22;1244;54.326;10.074;2022-07-10T05:21:33;13.30;99.90
2465;DHT22;1244;54.326;10.074;2022-07-10T05:23:59;13.20;99.90
2465;DHT22;1244;54.326;10.074;2022-07-10T05:26:24;13.30;99.90
2465;DHT22;1244;54.326;10.074;2022-07-10T05:28:50;13.30;99.90
2465;DHT22;1244;54.326;10.074;2022-07-10T05:31:15;13.20;99.90
2465;DHT22;1244;54.326;10.074;2022-07-10T05:33:41;13.30;99.90
2465;DHT22;1244;54.326;10.074;2022-07-10T05:36:08;13.40;99.90
2465;DHT22;1244;54.326;10.074;2022-07-10T05:38:34;13.50;99.90
2465;DHT22;1244;54.326;10.074;2022-07-10T05:40:59;13.50;99.90
2465;DHT22;1244;54.326;10.074;2022-07-10T05:43:25;13.50;99.90
2465;DHT22;1244;54.326;10.074;2022-07-10T05:45:50;13.50;99.90
2465;DHT22;1244;54.326;10.074;2022-07-10T05:48:16;13.60;99.90
2465;DHT22;1244;54.326;10.074;2022-07-10T05:50:41;13.60;99.90
2465;DHT22;1244;54.326;10.074;2022-07-10T05:53:07;13.70;99.90
2465;DHT22;1244;54.326;10.074;2022-07-10T05:55:32;13.90;99.90
2465;DHT22;1244;54.326;10.074;2022-07-10T05:57:58;13.90;99.90
2465;DHT22;1244;54.326;10.074;2022-07-10T06:00:24;14.00;99.90
2465;DHT22;1244;54.326;10.074;2022-07-10T06:02:50;13.90;99.90
2465;DHT22;1244;54.326;10.074;2022-07-10T06:05:15;14.10;99.90
2465;DHT22;1244;54.326;10.074;2022-07-10T06:07:41;14.10;99.90
2465;DHT22;1244;54.326;10.074;2022-07-10T06:10:07;14.10;99.90
2465;DHT22;1244;54.326;10.074;2022-07-10T06:12:32;14.10;99.90
2465;DHT22;1244;54.326;10.074;2022-07-10T06:14:58;14.30;99.90
2465;DHT22;1244;54.326;10.074;2022-07-10T06:17:24;14.30;99.90
2465;DHT22;1244;54.326;10.074;2022-07-10T06:19:49;14.30;99.90
2465;DHT22;1244;54.326;10.074;2022-07-10T06:22:15;14.40;99.90
2465;DHT22;1244;54.326;10.074;2022-07-10T06:24:57;14.60;99.90
2465;DHT22;1244;54.326;10.074;2022-07-10T06:27:23;14.60;99.90
2465;DHT22;1244;54.326;10.074;2022-07-10T06:29:49;14.90;99.90
2465;DHT22;1244;54.326;10.074;2022-07-10T06:32:15;14.80;99.90
2465;DHT22;1244;54.326;10.074;2022-07-10T06:34:40;14.90;99.90
2465;DHT22;1244;54.326;10.074;2022-07-10T06:37:06;14.80;99.90
2465;DHT22;1244;54.326;10.074;2022-07-10T06:39:33;14.90;99.90
2465;DHT22;1244;54.326;10.074;2022-07-10T06:42:05;14.90;99.90
2465;DHT22;1244;54.326;10.074;2022-07-10T06:44:31;15.00;99.90
2465;DHT22;1244;54.326;10.074;2022-07-10T06:46:57;15.00;99.90
2465;DHT22;1244;54.326;10.074;2022-07-10T06:49:42;14.70;99.90
2465;DHT22;1244;54.326;10.074;2022-07-10T06:52:09;14.90;99.90
2465;DHT22;1244;54.326;10.074;2022-07-10T06:54:35;14.90;99.90
2465;DHT22;1244;54.326;10.074;2022-07-10T06:57:01;15.10;99.90
2465;DHT22;1244;54.326;10.074;2022-07-10T06:59:26;15.20;99.90
2465;DHT22;1244;54.326;10.074;2022-07-10T07:01:52;15.30;99.90
2465;DHT22;1244;54.326;10.074;2022-07-10T07:04:18;15.30;99.90
2465;DHT22;1244;54.326;10.074;2022-07-10T07:06:43;15.40;99.90
2465;DHT22;1244;54.326;10.074;2022-07-10T07:09:09;15.20;99.90
2465;DHT22;1244;54.326;10.074;2022-07-10T07:11:34;15.30;99.90
2465;DHT22;1244;54.326;10.074;2022-07-10T07:14:00;15.30;99.90
2465;DHT22;1244;54.326;10.074;2022-07-10T07:16:25;15.20;99.90
2465;DHT22;1244;54.326;10.074;2022-07-10T07:19:04;15.30;99.90
2465;DHT22;1244;54.326;10.074;2022-07-10T07:21:31;15.50;99.90
2465;DHT22;1244;54.326;10.074;2022-07-10T07:24:15;15.70;99.90
2465;DHT22;1244;54.326;10.074;2022-07-10T07:26:46;15.90;99.90
2465;DHT22;1244;54.326;10.074;2022-07-10T07:29:16;16.30;99.90
2465;DHT22;1244;54.326;10.074;2022-07-10T07:31:42;16.50;99.90
2465;DHT22;1244;54.326;10.074;2022-07-10T07:34:07;16.40;99.90
2465;DHT22;1244;54.326;10.074;2022-07-10T07:36:33;16.10;99.90
2465;DHT22;1244;54.326;10.074;2022-07-10T07:38:59;16.40;99.90
2465;DHT22;1244;54.326;10.074;2022-07-10T07:41:24;16.80;99.90
2465;DHT22;1244;54.326;10.074;2022-07-10T07:43:50;17.10;99.90
2465;DHT22;1244;54.326;10.074;2022-07-10T07:46:16;17.10;99.90
2465;DHT22;1244;54.326;10.074;2022-07-10T07:48:42;17.20;99.90
2465;DHT22;1244;54.326;10.074;2022-07-10T07:51:07;16.80;99.90
2465;DHT22;1244;54.326;10.074;2022-07-10T07:53:33;16.70;99.90
2465;DHT22;1244;54.326;10.074;2022-07-10T07:55:58;16.80;99.90
2465;DHT22;1244;54.326;10.074;2022-07-10T07:58:24;17.30;99.90
2465;DHT22;1244;54.326;10.074;2022-07-10T08:00:50;17.70;99.90
2465;DHT22;1244;54.326;10.074;2022-07-10T08:03:15;17.80;99.90
2465;DHT22;1244;54.326;10.074;2022-07-10T08:05:41;18.00;99.90
2465;DHT22;1244;54.326;10.074;2022-07-10T08:08:07;18.10;99.90
2465;DHT22;1244;54.326;10.074;2022-07-10T08:10:35;17.50;99.90
2465;DHT22;1244;54.326;10.074;2022-07-10T08:13:02;17.60;99.90
2465;DHT22;1244;54.326;10.074;2022-07-10T08:15:29;17.30;99.90
2465;DHT22;1244;54.326;10.074;2022-07-10T08:17:56;17.00;99.90
2465;DHT22;1244;54.326;10.074;2022-07-10T08:20:22;17.20;99.90
2465;DHT22;1244;54.326;10.074;2022-07-10T08:22:49;16.80;99.90
2465;DHT22;1244;54.326;10.074;2022-07-10T08:25:15;16.60;99.90
2465;DHT22;1244;54.326;10.074;2022-07-10T08:27:41;16.80;99.90
2465;DHT22;1244;54.326;10.074;2022-07-10T08:30:07;17.20;99.90
2465;DHT22;1244;54.326;10.074;2022-07-10T08:32:37;17.30;99.90
2465;DHT22;1244;54.326;10.074;2022-07-10T08:35:03;17.70;99.90
2465;DHT22;1244;54.326;10.074;2022-07-10T08:37:29;17.60;99.90
2465;DHT22;1244;54.326;10.074;2022-07-10T08:39:55;17.90;99.90
2465;DHT22;1244;54.326;10.074;2022-07-10T08:42:21;18.30;99.90
2465;DHT22;1244;54.326;10.074;2022-07-10T08:44:46;17.90;99.90
2465;DHT22;1244;54.326;10.074;2022-07-10T08:47:13;18.10;99.90
2465;DHT22;1244;54.326;10.074;2022-07-10T08:49:46;18.80;99.90
2465;DHT22;1244;54.326;10.074;2022-07-10T08:52:43;19.50;99.90
2465;DHT22;1244;54.326;10.074;2022-07-10T08:55:13;20.00;99.90
2465;DHT22;1244;54.326;10.074;2022-07-10T08:57:39;19.50;99.90
2465;DHT22;1244;54.326;10.074;2022-07-10T09:00:06;19.00;99.90
2465;DHT22;1244;54.326;10.074;2022-07-10T09:02:32;19.40;99.90
2465;DHT22;1244;54.326;10.074;2022-07-10T09:04:57;20.00;99.90
2465;DHT22;1244;54.326;10.074;2022-07-10T09:07:24;19.50;99.90
2465;DHT22;1244;54.326;10.074;2022-07-10T09:09:54;19.10;99.90
2465;DHT22;1244;54.326;10.074;2022-07-10T09:12:24;18.70;99.90
2465;DHT22;1244;54.326;10.074;2022-07-10T09:14:50;18.70;99.90
2465;DHT22;1244;54.326;10.074;2022-07-10T09:17:17;18.60;99.90
2465;DHT22;1244;54.326;10.074;2022-07-10T09:19:43;18.40;99.90
2465;DHT22;1244;54.326;10.074;2022-07-10T09:22:10;18.80;99.90
2465;DHT22;1244;54.326;10.074;2022-07-10T09:24:41;18.70;99.90
2465;DHT22;1244;54.326;10.074;2022-07-10T09:27:09;18.50;99.90
2465;DHT22;1244;54.326;10.074;2022-07-10T09:29:52;18.30;99.90
2465;DHT22;1244;54.326;10.074;2022-07-10T09:32:23;17.80;99.90
2465;DHT22;1244;54.326;10.074;2022-07-10T09:34:50;17.80;99.90
2465;DHT22;1244;54.326;10.074;2022-07-10T09:37:39;18.70;99.90
2465;DHT22;1244;54.326;10.074;2022-07-10T09:40:06;19.80;99.90
2465;DHT22;1244;54.326;10.074;2022-07-10T09:42:42;19.80;99.90
2465;DHT22;1244;54.326;10.074;2022-07-10T09:47:45;18.50;99.90
2465;DHT22;1244;54.326;10.074;2022-07-10T09:50:28;18.70;99.90
2465;DHT22;1244;54.326;10.074;2022-07-10T09:53:03;19.10;99.90
2465;DHT22;1244;54.326;10.074;2022-07-10T09:55:30;19.40;99.90
2465;DHT22;1244;54.326;10.074;2022-07-10T09:58:01;19.30;99.90
2465;DHT22;1244;54.326;10.074;2022-07-10T10:00:29;19.20;99.90
2465;DHT22;1244;54.326;10.074;2022-07-10T10:02:59;19.50;99.90
2465;DHT22;1244;54.326;10.074;2022-07-10T10:05:55;19.30;99.90
2465;DHT22;1244;54.326;10.074;2022-07-10T10:08:32;19.20;99.90
2465;DHT22;1244;54.326;10.074;2022-07-10T10:11:01;19.40;99.90
2465;DHT22;1244;54.326;10.074;2022-07-10T10:13:28;19.10;99.90
2465;DHT22;1244;54.326;10.074;2022-07-10T10:15:54;18.70;99.90
2465;DHT22;1244;54.326;10.074;2022-07-10T10:18:26;18.30;99.90
2465;DHT22;1244;54.326;10.074;2022-07-10T10:20:56;18.70;99.90
2465;DHT22;1244;54.326;10.074;2022-07-10T10:23:23;19.20;99.90
2465;DHT22;1244;54.326;10.074;2022-07-10T10:25:54;20.10;99.90
2465;DHT22;1244;54.326;10.074;2022-07-10T10:28:21;19.90;99.90
2465;DHT22;1244;54.326;10.074;2022-07-10T10:30:50;19.50;99.90
2465;DHT22;1244;54.326;10.074;2022-07-10T10:36:09;20.80;99.90
2465;DHT22;1244;54.326;10.074;2022-07-10T10:41:29;20.30;99.90
2465;DHT22;1244;54.326;10.074;2022-07-10T10:47:01;19.70;99.90
2465;DHT22;1244;54.326;10.074;2022-07-10T10:49:51;19.40;99.90
2465;DHT22;1244;54.326;10.074;2022-07-10T10:52:17;19.20;99.90
2465;DHT22;1244;54.326;10.074;2022-07-10T10:59:57;20.70;99.90
2465;DHT22;1244;54.326;10.074;2022-07-10T11:02:31;21.30;99.90
2465;DHT22;1244;54.326;10.074;2022-07-10T11:08:11;20.10;99.90
2465;DHT22;1244;54.326;10.074;2022-07-10T11:10:42;19.80;99.90
2465;DHT22;1244;54.326;10.074;2022-07-10T11:13:13;19.60;99.90
2465;DHT22;1244;54.326;10.074;2022-07-10T11:15:44;19.20;99.90
2465;DHT22;1244;54.326;10.074;2022-07-10T11:20:39;20.20;99.90
2465;DHT22;1244;54.326;10.074;2022-07-10T11:23:26;21.50;99.90
2465;DHT22;1244;54.326;10.074;2022-07-10T11:28:49;20.90;99.90
2465;DHT22;1244;54.326;10.074;2022-07-10T11:31:15;21.10;99.90
2465;DHT22;1244;54.326;10.074;2022-07-10T11:33:42;20.20;99.90
2465;DHT22;1244;54.326;10.074;2022-07-10T11:36:11;20.30;99.90
2465;DHT22;1244;54.326;10.074;2022-07-10T11:38:39;19.90;99.90
2465;DHT22;1244;54.326;10.074;2022-07-10T11:41:15;19.90;99.90
2465;DHT22;1244;54.326;10.074;2022-07-10T11:43:52;19.70;99.90
2465;DHT22;1244;54.326;10.074;2022-07-10T11:46:19;19.30;99.90
2465;DHT22;1244;54.326;10.074;2022-07-10T11:48:47;20.70;99.90
2465;DHT22;1244;54.326;10.074;2022-07-10T11:51:35;22.20;99.90
2465;DHT22;1244;54.326;10.074;2022-07-10T11:54:16;22.10;99.90
2465;DHT22;1244;54.326;10.074;2022-07-10T11:56:48;21.80;99.90
2465;DHT22;1244;54.326;10.074;2022-07-10T11:59:14;21.70;99.90
2465;DHT22;1244;54.326;10.074;2022-07-10T12:01:48;21.60;99.90
2465;DHT22;1244;54.326;10.074;2022-07-10T12:04:16;23.20;99.90
2465;DHT22;1244;54.326;10.074;2022-07-10T12:06:45;24.70;99.90
2465;DHT22;1244;54.326;10.074;2022-07-10T12:09:22;23.70;99.90
2465;DHT22;1244;54.326;10.074;2022-07-10T12:12:04;22.80;99.90
2465;DHT22;1244;54.326;10.074;2022-07-10T12:14:31;21.50;99.90
2465;DHT22;1244;54.326;10.074;2022-07-10T12:16:58;20.70;99.90
2465;DHT22;1244;54.326;10.074;2022-07-10T12:19:26;19.30;99.90
2465;DHT22;1244;54.326;10.074;2022-07-10T12:21:53;19.50;99.90
2465;DHT22;1244;54.326;10.074;2022-07-10T12:24:19;20.20;99.90
2465;DHT22;1244;54.326;10.074;2022-07-10T12:26:46;21.60;99.90
2465;DHT22;1244;54.326;10.074;2022-07-10T12:29:19;23.00;99.90
2465;DHT22;1244;54.326;10.074;2022-07-10T12:31:47;23.70;99.90
2465;DHT22;1244;54.326;10.074;2022-07-10T12:34:12;23.40;99.90
2465;DHT22;1244;54.326;10.074;2022-07-10T12:36:43;22.40;99.90
2465;DHT22;1244;54.326;10.074;2022-07-10T12:39:09;21.70;99.90
2465;DHT22;1244;54.326;10.074;2022-07-10T12:41:35;21.00;99.90
2465;DHT22;1244;54.326;10.074;2022-07-10T12:44:30;20.70;99.90
2465;DHT22;1244;54.326;10.074;2022-07-10T12:47:03;20.30;99.90
2465;DHT22;1244;54.326;10.074;2022-07-10T12:50:03;21.40;99.90
2465;DHT22;1244;54.326;10.074;2022-07-10T12:52:30;23.00;99.90
2465;DHT22;1244;54.326;10.074;2022-07-10T12:55:22;23.50;99.90
2465;DHT22;1244;54.326;10.074;2022-07-10T12:58:07;23.50;99.90
2465;DHT22;1244;54.326;10.074;2022-07-10T13:00:46;23.10;99.90
2465;DHT22;1244;54.326;10.074;2022-07-10T13:03:20;21.90;99.90
2465;DHT22;1244;54.326;10.074;2022-07-10T13:05:47;23.00;99.90
2465;DHT22;1244;54.326;10.074;2022-07-10T13:08:18;23.50;99.90
2465;DHT22;1244;54.326;10.074;2022-07-10T13:10:57;23.40;99.90
2465;DHT22;1244;54.326;10.074;2022-07-10T13:13:25;22.20;99.90
2465;DHT22;1244;54.326;10.074;2022-07-10T13:15:51;21.00;99.90
2465;DHT22;1244;54.326;10.074;2022-07-10T13:18:24;21.10;99.90
2465;DHT22;1244;54.326;10.074;2022-07-10T13:20:51;21.50;99.90
2465;DHT22;1244;54.326;10.074;2022-07-10T13:23:16;22.20;99.90
2465;DHT22;1244;54.326;10.074;2022-07-10T13:25:46;22.80;99.90
2465;DHT22;1244;54.326;10.074;2022-07-10T13:28:11;22.40;99.90
2465;DHT22;1244;54.326;10.074;2022-07-10T13:30:37;22.40;99.90
2465;DHT22;1244;54.326;10.074;2022-07-10T13:33:03;23.00;99.90
2465;DHT22;1244;54.326;10.074;2022-07-10T13:35:30;22.70;99.90
2465;DHT22;1244;54.326;10.074;2022-07-10T13:37:57;23.10;99.90
2465;DHT22;1244;54.326;10.074;2022-07-10T13:40:25;23.10;99.90
2465;DHT22;1244;54.326;10.074;2022-07-10T13:42:51;23.70;99.90
2465;DHT22;1244;54.326;10.074;2022-07-10T13:45:18;23.40;99.90
2465;DHT22;1244;54.326;10.074;2022-07-10T13:47:43;22.50;99.90
2465;DHT22;1244;54.326;10.074;2022-07-10T13:50:09;22.70;99.90
2465;DHT22;1244;54.326;10.074;2022-07-10T13:52:34;22.90;99.90
2465;DHT22;1244;54.326;10.074;2022-07-10T13:55:00;23.20;99.90
2465;DHT22;1244;54.326;10.074;2022-07-10T13:57:26;23.20;99.90
2465;DHT22;1244;54.326;10.074;2022-07-10T13:59:53;23.40;99.90
2465;DHT22;1244;54.326;10.074;2022-07-10T14:02:19;23.10;99.90
2465;DHT22;1244;54.326;10.074;2022-07-10T14:04:46;23.50;99.90
2465;DHT22;1244;54.326;10.074;2022-07-10T14:07:12;22.60;99.90
2465;DHT22;1244;54.326;10.074;2022-07-10T14:09:37;22.80;99.90
2465;DHT22;1244;54.326;10.074;2022-07-10T14:12:03;22.30;99.90
2465;DHT22;1244;54.326;10.074;2022-07-10T14:14:29;22.30;99.90
2465;DHT22;1244;54.326;10.074;2022-07-10T14:16:55;22.10;99.90
2465;DHT22;1244;54.326;10.074;2022-07-10T14:19:20;21.80;99.90
2465;DHT22;1244;54.326;10.074;2022-07-10T14:21:46;22.10;99.90
2465;DHT22;1244;54.326;10.074;2022-07-10T14:24:11;22.00;99.90
2465;DHT22;1244;54.326;10.074;2022-07-10T14:26:37;21.80;99.90
2465;DHT22;1244;54.326;10.074;2022-07-10T14:29:03;21.70;99.90
2465;DHT22;1244;54.326;10.074;2022-07-10T14:31:29;21.50;99.90
2465;DHT22;1244;54.326;10.074;2022-07-10T14:33:54;21.30;99.90
2465;DHT22;1244;54.326;10.074;2022-07-10T14:36:20;21.70;99.90
2465;DHT22;1244;54.326;10.074;2022-07-10T14:38:55;22.10;99.90
2465;DHT22;1244;54.326;10.074;2022-07-10T14:41:22;22.20;99.90
2465;DHT22;1244;54.326;10.074;2022-07-10T14:43:47;22.10;99.90
2465;DHT22;1244;54.326;10.074;2022-07-10T14:46:13;22.70;99.90
2465;DHT22;1244;54.326;10.074;2022-07-10T14:48:38;22.40;99.90
2465;DHT22;1244;54.326;10.074;2022-07-10T14:51:04;22.30;99.90
2465;DHT22;1244;54.326;10.074;2022-07-10T14:53:30;22.70;99.90
2465;DHT22;1244;54.326;10.074;2022-07-10T14:56:00;22.70;99.90
2465;DHT22;1244;54.326;10.074;2022-07-10T14:58:25;23.10;99.90
2465;DHT22;1244;54.326;10.074;2022-07-10T15:00:51;23.00;99.90
2465;DHT22;1244;54.326;10.074;2022-07-10T15:03:16;21.80;99.90
2465;DHT22;1244;54.326;10.074;2022-07-10T15:05:42;22.10;99.90
2465;DHT22;1244;54.326;10.074;2022-07-10T15:08:08;22.10;99.90
2465;DHT22;1244;54.326;10.074;2022-07-10T15:10:33;21.80;99.90
2465;DHT22;1244;54.326;10.074;2022-07-10T15:12:59;21.50;99.90
2465;DHT22;1244;54.326;10.074;2022-07-10T15:15:25;21.50;99.90
2465;DHT22;1244;54.326;10.074;2022-07-10T15:17:51;21.60;99.90
2465;DHT22;1244;54.326;10.074;2022-07-10T15:20:16;21.10;99.90
2465;DHT22;1244;54.326;10.074;2022-07-10T15:22:44;21.60;99.90
2465;DHT22;1244;54.326;10.074;2022-07-10T15:25:10;22.00;99.90
2465;DHT22;1244;54.326;10.074;2022-07-10T15:27:35;22.30;99.90
2465;DHT22;1244;54.326;10.074;2022-07-10T15:30:01;22.00;99.90
2465;DHT22;1244;54.326;10.074;2022-07-10T15:32:26;21.60;99.90
2465;DHT22;1244;54.326;10.074;2022-07-10T15:34:52;21.60;99.90
2465;DHT22;1244;54.326;10.074;2022-07-10T15:37:18;21.70;99.90
2465;DHT22;1244;54.326;10.074;2022-07-10T15:39:44;21.30;99.90
2465;DHT22;1244;54.326;10.074;2022-07-10T15:42:11;21.30;99.90
2465;DHT22;1244;54.326;10.074;2022-07-10T15:44:37;20.50;99.90
2465;DHT22;1244;54.326;10.074;2022-07-10T15:47:03;20.30;99.90
2465;DHT22;1244;54.326;10.074;2022-07-10T15:49:29;20.40;99.90
2465;DHT22;1244;54.326;10.074;2022-07-10T15:51:55;20.60;99.90
2465;DHT22;1244;54.326;10.074;2022-07-10T15:54:21;20.20;99.90
2465;DHT22;1244;54.326;10.074;2022-07-10T15:56:47;20.20;99.90
2465;DHT22;1244;54.326;10.074;2022-07-10T15:59:12;20.10;99.90
2465;DHT22;1244;54.326;10.074;2022-07-10T16:01:38;20.20;99.90
2465;DHT22;1244;54.326;10.074;2022-07-10T16:04:03;19.70;99.90
2465;DHT22;1244;54.326;10.074;2022-07-10T16:06:29;20.10;99.90
2465;DHT22;1244;54.326;10.074;2022-07-10T16:08:55;20.00;99.90
2465;DHT22;1244;54.326;10.074;2022-07-10T16:11:21;20.00;99.90